createdAt,value
2023-08-11T00:00:05.724Z,7.97
2023-08-11T00:02:39.753Z,8.47
2023-08-11T00:05:09.234Z,7.93
2023-08-11T00:07:37.517Z,7.73
2023-08-11T00:10:06.891Z,7.40
2023-08-11T00:12:36.433Z,7.33
2023-08-11T00:15:04.839Z,6.93
2023-08-11T00:17:33.216Z,6.97
2023-08-11T00:20:01.896Z,7.17
2023-08-11T00:22:29.799Z,6.43
2023-08-11T00:24:57.796Z,6.60
2023-08-11T00:27:25.741Z,6.50
2023-08-11T00:29:57.354Z,6.20
2023-08-11T00:32:25.533Z,6.23
2023-08-11T00:34:53.484Z,6.53
2023-08-11T00:37:21.662Z,6.50
2023-08-11T00:39:51.728Z,6.70
2023-08-11T00:42:19.757Z,6.60
2023-08-11T00:44:47.637Z,6.40
2023-08-11T00:47:17.488Z,6.67
2023-08-11T00:49:45.383Z,6.30
2023-08-11T00:52:13.759Z,6.47
2023-08-11T00:54:42.257Z,6.60
2023-08-11T00:57:10.860Z,6.77
2023-08-11T00:59:38.871Z,6.40
2023-08-11T01:02:07.989Z,6.60
2023-08-11T01:04:38.397Z,6.57
2023-08-11T01:07:14.238Z,6.30
2023-08-11T01:09:45.160Z,7.13
2023-08-11T01:12:18.497Z,6.63
2023-08-11T01:14:51.774Z,6.27
2023-08-11T01:17:20.177Z,6.73
2023-08-11T01:19:50.501Z,6.47
2023-08-11T01:22:21.999Z,6.10
2023-08-11T01:24:51.488Z,7.07
2023-08-11T01:27:19.435Z,6.47
2023-08-11T01:29:47.448Z,6.27
2023-08-11T01:32:17.145Z,6.43
2023-08-11T01:34:45.056Z,6.20
2023-08-11T01:37:13.470Z,6.87
2023-08-11T01:39:42.584Z,6.63
2023-08-11T01:42:11.937Z,6.60
2023-08-11T01:44:40.123Z,6.10
2023-08-11T01:47:08.650Z,6.03
2023-08-11T01:49:36.847Z,6.03
2023-08-11T01:52:05.388Z,6.23
2023-08-11T01:54:33.650Z,6.00
2023-08-11T01:57:02.057Z,6.47
2023-08-11T01:59:32.019Z,6.40
2023-08-11T02:02:00.103Z,5.77
2023-08-11T02:04:29.568Z,6.27
2023-08-11T02:06:57.490Z,6.30
2023-08-11T02:09:25.389Z,6.33
2023-08-11T02:11:53.349Z,6.23
2023-08-11T02:14:21.398Z,6.33
2023-08-11T02:16:51.134Z,6.10
2023-08-11T02:19:19.109Z,6.20
2023-08-11T02:21:47.139Z,6.30
2023-08-11T02:24:16.933Z,6.63
2023-08-11T02:26:45.776Z,6.07
2023-08-11T02:29:13.674Z,5.87
2023-08-11T02:31:41.654Z,6.20
2023-08-11T02:34:11.094Z,5.87
2023-08-11T02:36:39.054Z,5.87
2023-08-11T02:39:07.175Z,6.20
2023-08-11T02:41:35.754Z,5.93
2023-08-11T02:44:05.057Z,5.67
2023-08-11T02:46:33.456Z,5.70
2023-08-11T02:49:01.352Z,6.03
2023-08-11T02:51:30.661Z,6.20
2023-08-11T02:53:58.733Z,5.90
2023-08-11T02:56:26.819Z,6.07
2023-08-11T02:58:57.835Z,5.73
2023-08-11T03:01:26.132Z,5.73
2023-08-11T03:03:54.207Z,5.73
2023-08-11T03:06:23.364Z,5.83
2023-08-11T03:08:53.446Z,5.80
2023-08-11T03:11:21.394Z,5.57
2023-08-11T03:13:49.379Z,5.87
2023-08-11T03:16:17.469Z,5.30
2023-08-11T03:18:45.391Z,6.57
2023-08-11T03:21:19.816Z,5.37
2023-08-11T03:23:50.285Z,5.50
2023-08-11T03:26:21.406Z,5.47
2023-08-11T03:28:49.707Z,5.57
2023-08-11T03:31:17.986Z,5.43
2023-08-11T03:33:49.234Z,5.67
2023-08-11T03:36:17.291Z,5.60
2023-08-11T03:38:46.632Z,5.93
2023-08-11T03:41:14.753Z,5.50
2023-08-11T03:43:44.936Z,5.37
2023-08-11T03:46:12.926Z,6.07
2023-08-11T03:48:41.052Z,5.63
2023-08-11T03:51:09.157Z,5.60
2023-08-11T03:53:37.803Z,5.47
2023-08-11T03:56:08.605Z,5.80
2023-08-11T03:58:39.732Z,6.10
2023-08-11T04:01:09.053Z,5.17
2023-08-11T04:03:37.437Z,5.33
2023-08-11T04:06:05.824Z,5.60
2023-08-11T04:08:34.821Z,5.57
2023-08-11T04:11:02.881Z,5.40
2023-08-11T04:13:30.944Z,5.23
2023-08-11T04:16:00.299Z,5.60
2023-08-11T04:18:29.709Z,5.57
2023-08-11T04:20:57.642Z,5.20
2023-08-11T04:23:25.721Z,5.00
2023-08-11T04:25:55.036Z,6.00
2023-08-11T04:28:23.797Z,5.90
2023-08-11T04:30:51.700Z,5.50
2023-08-11T04:33:20.150Z,5.57
2023-08-11T04:35:50.788Z,6.10
2023-08-11T04:38:19.347Z,6.10
2023-08-11T04:40:50.719Z,5.57
2023-08-11T04:43:20.054Z,5.30
2023-08-11T04:45:48.628Z,5.63
2023-08-11T04:48:18.587Z,6.47
2023-08-11T04:50:53.193Z,6.00
2023-08-11T04:53:22.298Z,6.23
2023-08-11T04:55:50.446Z,5.83
2023-08-11T04:58:18.446Z,5.87
2023-08-11T05:00:46.528Z,5.43
2023-08-11T05:03:14.497Z,5.20
2023-08-11T05:05:42.638Z,5.00
2023-08-11T05:08:11.976Z,4.93
2023-08-11T05:10:39.915Z,5.17
2023-08-11T05:13:07.925Z,5.40
2023-08-11T05:15:36.192Z,6.03
2023-08-11T05:18:05.236Z,5.80
2023-08-11T05:20:33.419Z,6.33
2023-08-11T05:23:01.383Z,5.50
2023-08-11T05:25:30.681Z,5.73
2023-08-11T05:27:58.671Z,6.13
2023-08-11T05:30:27.364Z,5.67
2023-08-11T05:32:55.672Z,5.43
2023-08-11T05:35:23.668Z,6.40
2023-08-11T05:37:51.652Z,6.20
2023-08-11T05:40:20.160Z,5.73
2023-08-11T05:42:49.417Z,6.03
2023-08-11T05:45:18.552Z,5.93
2023-08-11T05:47:46.743Z,5.10
2023-08-11T05:50:14.749Z,5.70
2023-08-11T05:52:42.789Z,5.50
2023-08-11T05:55:11.022Z,5.67
2023-08-11T05:57:39.036Z,5.90
2023-08-11T06:00:10.090Z,4.83
2023-08-11T06:02:41.080Z,5.37
2023-08-11T06:05:09.868Z,5.50
2023-08-11T06:07:38.935Z,5.57
2023-08-11T06:10:08.746Z,5.13
2023-08-11T06:12:37.023Z,5.70
2023-08-11T06:15:05.821Z,5.43
2023-08-11T06:17:35.119Z,5.40
2023-08-11T06:20:03.427Z,5.53
2023-08-11T06:22:31.293Z,5.60
2023-08-11T06:24:59.777Z,5.20
2023-08-11T06:27:28.284Z,6.07
2023-08-11T06:29:56.227Z,5.70
2023-08-11T06:32:24.136Z,4.90
2023-08-11T06:34:53.504Z,5.00
2023-08-11T06:37:21.739Z,4.90
2023-08-11T06:39:49.667Z,5.17
2023-08-11T06:42:17.827Z,5.10
2023-08-11T06:44:56.322Z,4.40
2023-08-11T06:47:24.904Z,4.53
2023-08-11T06:49:54.392Z,4.67
2023-08-11T06:52:22.243Z,4.10
2023-08-11T06:54:50.240Z,3.90
2023-08-11T06:57:21.503Z,3.83
2023-08-11T06:59:49.734Z,3.90
2023-08-11T07:02:17.695Z,4.20
2023-08-11T07:04:45.888Z,4.33
2023-08-11T07:07:15.156Z,3.90
2023-08-11T07:09:43.069Z,3.77
2023-08-11T07:12:11.007Z,3.63
2023-08-11T07:14:38.954Z,3.70
2023-08-11T07:17:07.127Z,3.60
2023-08-11T07:19:35.241Z,4.20
2023-08-11T07:22:03.213Z,3.90
2023-08-11T07:24:32.544Z,3.57
2023-08-11T07:27:00.421Z,3.40
2023-08-11T07:29:28.334Z,3.67
2023-08-11T07:31:58.835Z,3.90
2023-08-11T07:34:27.110Z,3.40
2023-08-11T07:36:55.033Z,3.50
2023-08-11T07:39:24.269Z,3.90
2023-08-11T07:41:53.729Z,3.80
2023-08-11T07:44:21.806Z,3.70
2023-08-11T07:46:49.837Z,3.63
2023-08-11T07:49:17.935Z,3.73
2023-08-11T07:51:46.019Z,3.40
2023-08-11T07:54:14.925Z,3.70
2023-08-11T07:56:42.936Z,3.60
2023-08-11T07:59:12.386Z,3.20
2023-08-11T08:01:40.541Z,4.20
2023-08-11T08:04:08.618Z,3.00
2023-08-11T08:06:44.160Z,3.43
2023-08-11T08:09:12.877Z,3.17
2023-08-11T08:11:40.850Z,3.87
2023-08-11T08:14:08.755Z,3.50
2023-08-11T08:16:38.162Z,3.17
2023-08-11T08:19:07.190Z,4.87
2023-08-11T08:21:35.221Z,2.93
2023-08-11T08:24:05.327Z,2.80
2023-08-11T08:26:33.714Z,2.83
2023-08-11T08:29:02.150Z,2.83
2023-08-11T08:31:30.542Z,2.70
2023-08-11T08:33:59.870Z,2.77
2023-08-11T08:36:28.185Z,3.27
2023-08-11T08:38:56.160Z,2.80
2023-08-11T08:41:29.358Z,3.30
2023-08-11T08:43:57.905Z,2.90
2023-08-11T08:46:29.036Z,2.43
2023-08-11T08:49:06.593Z,2.70
2023-08-11T08:51:35.849Z,2.40
2023-08-11T08:54:03.748Z,2.57
2023-08-11T08:56:31.720Z,2.40
2023-08-11T08:58:59.854Z,3.00
2023-08-11T09:01:28.072Z,3.10
2023-08-11T09:03:57.053Z,2.97
2023-08-11T09:06:27.597Z,2.73
2023-08-11T09:08:55.624Z,2.47
2023-08-11T09:11:24.643Z,2.67
2023-08-11T09:13:52.521Z,2.70
2023-08-11T09:16:24.267Z,2.30
2023-08-11T09:18:52.356Z,2.37
2023-08-11T09:21:24.213Z,2.10
2023-08-11T09:23:55.436Z,2.10
2023-08-11T09:26:23.686Z,2.50
2023-08-11T09:28:52.095Z,1.97
2023-08-11T09:31:25.209Z,2.10
2023-08-11T09:33:54.013Z,2.10
2023-08-11T09:36:22.309Z,1.73
2023-08-11T09:38:51.156Z,2.07
2023-08-11T09:41:20.457Z,2.37
2023-08-11T09:43:49.646Z,2.03
2023-08-11T09:46:25.996Z,1.57
2023-08-11T09:48:55.750Z,1.67
2023-08-11T09:51:23.644Z,1.90
2023-08-11T09:53:51.884Z,1.50
2023-08-11T09:56:23.051Z,1.60
2023-08-11T09:58:53.628Z,1.80
2023-08-11T10:01:22.292Z,1.80
2023-08-11T10:03:50.727Z,1.50
2023-08-11T10:06:22.077Z,1.50
2023-08-11T10:08:51.589Z,1.40
2023-08-11T10:11:22.375Z,1.77
2023-08-11T10:13:50.658Z,1.80
2023-08-11T10:16:18.986Z,1.60
2023-08-11T10:18:47.072Z,1.70
2023-08-11T10:21:15.216Z,1.50
2023-08-11T10:23:43.140Z,1.60
2023-08-11T10:26:11.468Z,1.90
2023-08-11T10:28:40.912Z,1.57
2023-08-11T10:31:08.927Z,1.90
2023-08-11T10:33:36.846Z,1.60
2023-08-11T10:36:05.149Z,1.80
2023-08-11T10:38:34.846Z,1.83
2023-08-11T10:41:03.024Z,1.90
2023-08-11T10:43:33.460Z,1.70
2023-08-11T10:46:24.026Z,1.77
2023-08-11T10:48:52.541Z,1.73
2023-08-11T10:51:35.762Z,1.50
2023-08-11T10:54:10.805Z,1.53
2023-08-11T10:56:40.107Z,1.77
2023-08-11T10:59:15.400Z,1.50
2023-08-11T11:01:47.448Z,1.60
2023-08-11T11:04:15.971Z,1.60
2023-08-11T11:06:45.962Z,1.60
2023-08-11T11:09:14.824Z,1.60
2023-08-11T11:11:45.696Z,1.90
2023-08-11T11:14:14.811Z,1.70
2023-08-11T11:16:44.159Z,1.40
2023-08-11T11:19:12.286Z,1.90
2023-08-11T11:21:41.262Z,1.50
2023-08-11T11:24:10.057Z,1.70
2023-08-11T11:26:38.416Z,1.40
2023-08-11T11:29:07.551Z,1.47
2023-08-11T11:31:37.107Z,1.90
2023-08-11T11:34:07.143Z,1.70
2023-08-11T11:36:35.387Z,1.43
2023-08-11T11:39:05.364Z,1.70
2023-08-11T11:41:33.830Z,1.80
2023-08-11T11:44:01.778Z,2.33
2023-08-11T11:46:33.585Z,2.40
2023-08-11T11:49:09.473Z,1.83
2023-08-11T11:51:46.074Z,1.57
2023-08-11T11:54:14.130Z,1.80
2023-08-11T11:56:50.426Z,1.60
2023-08-11T11:59:27.779Z,2.00
2023-08-11T12:02:00.771Z,1.50
2023-08-11T12:04:28.995Z,1.60
2023-08-11T12:06:58.448Z,1.83
2023-08-11T12:09:26.488Z,1.73
2023-08-11T12:11:55.686Z,1.80
2023-08-11T12:14:27.601Z,1.80
2023-08-11T12:16:55.573Z,1.70
2023-08-11T12:19:25.461Z,1.53
2023-08-11T12:21:53.405Z,1.50
2023-08-11T12:24:23.544Z,1.53
2023-08-11T12:26:51.575Z,1.50
2023-08-11T12:29:19.686Z,1.50
2023-08-11T12:31:48.078Z,1.27
2023-08-11T12:34:15.945Z,1.70
2023-08-11T12:36:44.194Z,1.90
2023-08-11T12:39:12.131Z,1.70
2023-08-11T12:41:41.421Z,2.07
2023-08-11T12:44:09.436Z,1.90
2023-08-11T12:46:38.446Z,1.50
2023-08-11T12:49:06.519Z,1.50
2023-08-11T12:51:34.682Z,1.70
2023-08-11T12:54:02.736Z,1.70
2023-08-11T12:56:30.809Z,1.40
2023-08-11T12:59:00.211Z,1.80
2023-08-11T13:01:28.251Z,1.40
2023-08-11T13:03:56.747Z,1.60
2023-08-11T13:06:24.911Z,1.57
2023-08-11T13:08:53.126Z,1.30
2023-08-11T13:11:21.032Z,1.50
2023-08-11T13:13:48.986Z,1.87
2023-08-11T13:16:18.382Z,1.40
2023-08-11T13:18:46.446Z,2.10
2023-08-11T13:21:14.425Z,1.47
2023-08-11T13:23:42.303Z,1.60
2023-08-11T13:26:10.336Z,1.30
2023-08-11T13:28:38.362Z,1.50
2023-08-11T13:31:06.486Z,1.60
2023-08-11T13:33:35.850Z,1.70
2023-08-11T13:36:04.994Z,1.50
2023-08-11T13:38:33.395Z,1.67
2023-08-11T13:41:02.608Z,1.50
2023-08-11T13:43:30.664Z,1.60
2023-08-11T13:45:59.060Z,1.40
2023-08-11T13:48:28.357Z,1.20
2023-08-11T13:50:59.910Z,1.23
2023-08-11T13:53:27.874Z,1.50
2023-08-11T13:55:55.825Z,1.40
2023-08-11T13:58:23.996Z,1.60
2023-08-11T14:00:52.557Z,1.27
2023-08-11T14:03:20.586Z,1.60
2023-08-11T14:05:48.935Z,1.33
2023-08-11T14:08:18.312Z,1.33
2023-08-11T14:10:46.290Z,1.60
2023-08-11T14:13:14.148Z,1.70
2023-08-11T14:15:42.226Z,1.50
2023-08-11T14:18:10.226Z,1.30
2023-08-11T14:20:38.813Z,1.30
2023-08-11T14:23:06.685Z,1.50
2023-08-11T14:25:35.896Z,1.53
2023-08-11T14:28:03.952Z,1.40
2023-08-11T14:30:32.004Z,1.77
2023-08-11T14:33:00.112Z,1.30
2023-08-11T14:35:28.261Z,1.40
2023-08-11T14:37:56.343Z,1.70
2023-08-11T14:40:24.257Z,1.73
2023-08-11T14:42:53.553Z,1.70
2023-08-11T14:45:21.455Z,1.50
2023-08-11T14:47:49.382Z,1.70
2023-08-11T14:50:17.510Z,1.70
2023-08-11T14:52:45.494Z,1.73
2023-08-11T14:55:13.533Z,1.53
2023-08-11T14:57:41.545Z,1.73
2023-08-11T15:00:12.194Z,1.67
2023-08-11T15:02:40.245Z,1.30
2023-08-11T15:05:09.100Z,1.50
2023-08-11T15:07:37.256Z,1.93
2023-08-11T15:10:05.598Z,2.47
2023-08-11T15:12:33.595Z,1.83
2023-08-11T15:15:01.569Z,1.87
2023-08-11T15:17:31.514Z,1.37
2023-08-11T15:19:59.477Z,1.80
2023-08-11T15:22:27.456Z,1.90
2023-08-11T15:24:55.389Z,1.70
2023-08-11T15:27:23.400Z,3.40
2023-08-11T15:29:51.334Z,1.57
2023-08-11T15:32:19.273Z,2.97
2023-08-11T15:34:48.705Z,2.00
2023-08-11T15:37:16.673Z,2.10
2023-08-11T15:39:45.152Z,1.90
2023-08-11T15:42:13.166Z,1.90
2023-08-11T15:44:41.156Z,1.60
2023-08-11T15:47:10.159Z,1.50
2023-08-11T15:49:38.181Z,1.50
2023-08-11T15:52:08.057Z,1.80
2023-08-11T15:54:36.431Z,1.97
2023-08-11T15:57:04.478Z,2.57
2023-08-11T15:59:32.419Z,2.03
2023-08-11T16:02:09.459Z,4.40
2023-08-11T16:04:38.828Z,2.30
2023-08-11T16:07:08.166Z,2.47
2023-08-11T16:09:36.109Z,2.13
2023-08-11T16:12:04.074Z,2.17
2023-08-11T16:14:33.085Z,2.00
2023-08-11T16:17:02.448Z,2.00
2023-08-11T16:19:30.440Z,1.67
2023-08-11T16:21:58.358Z,3.27
2023-08-11T16:24:27.648Z,2.07
2023-08-11T16:26:55.523Z,2.10
2023-08-11T16:29:23.515Z,1.60
2023-08-11T16:31:51.513Z,2.40
2023-08-11T16:34:19.436Z,1.80
2023-08-11T16:36:47.347Z,1.80
2023-08-11T16:39:15.272Z,1.90
2023-08-11T16:41:44.485Z,1.50
2023-08-11T16:44:12.498Z,2.73
2023-08-11T16:46:40.485Z,1.90
2023-08-11T16:49:09.032Z,2.20
2023-08-11T16:51:36.962Z,1.73
2023-08-11T16:54:05.417Z,2.00
2023-08-11T16:56:33.339Z,2.53
2023-08-11T16:59:02.840Z,2.30
2023-08-11T17:01:30.883Z,2.00
2023-08-11T17:03:59.006Z,1.67
2023-08-11T17:06:27.095Z,2.30
2023-08-11T17:08:55.224Z,2.27
2023-08-11T17:11:23.139Z,2.73
2023-08-11T17:13:51.092Z,2.60
2023-08-11T17:16:20.571Z,2.60
2023-08-11T17:18:51.030Z,2.80
2023-08-11T17:21:20.016Z,2.17
2023-08-11T17:23:48.456Z,2.67
2023-08-11T17:26:16.843Z,2.47
2023-08-11T17:28:44.843Z,2.07
2023-08-11T17:31:12.798Z,6.43
2023-08-11T17:33:42.259Z,2.70
2023-08-11T17:36:10.293Z,4.93
2023-08-11T17:38:38.229Z,2.57
2023-08-11T17:41:06.661Z,6.03
2023-08-11T17:43:34.742Z,4.53
2023-08-11T17:46:02.923Z,3.77
2023-08-11T17:48:30.944Z,1.97
2023-08-11T17:51:00.192Z,2.07
2023-08-11T17:53:28.213Z,2.37
2023-08-11T17:55:56.155Z,2.97
2023-08-11T17:58:24.123Z,3.30
2023-08-11T18:00:52.235Z,4.20
2023-08-11T18:03:20.312Z,3.10
2023-08-11T18:05:48.390Z,2.80
2023-08-11T18:08:17.824Z,4.13
2023-08-11T18:10:45.833Z,3.70
2023-08-11T18:13:13.954Z,4.03
2023-08-11T18:15:41.948Z,2.40
2023-08-11T18:18:10.014Z,2.50
2023-08-11T18:20:38.054Z,3.93
2023-08-11T18:23:06.018Z,3.80
2023-08-11T18:25:36.666Z,4.73
2023-08-11T18:28:05.037Z,4.33
2023-08-11T18:30:32.970Z,5.27
2023-08-11T18:33:01.091Z,4.73
2023-08-11T18:35:29.156Z,5.10
2023-08-11T18:37:57.384Z,4.73
2023-08-11T18:40:26.979Z,4.43
2023-08-11T18:42:56.404Z,5.00
2023-08-11T18:45:24.375Z,6.23
2023-08-11T18:47:54.340Z,4.90
2023-08-11T18:50:22.315Z,4.53
2023-08-11T18:52:51.275Z,3.90
2023-08-11T18:55:19.901Z,3.70
2023-08-11T18:57:47.832Z,4.20
2023-08-11T19:00:18.197Z,4.60
2023-08-11T19:02:46.482Z,5.87
2023-08-11T19:05:14.668Z,4.97
2023-08-11T19:07:42.660Z,5.23
2023-08-11T19:10:11.296Z,4.93
2023-08-11T19:12:39.268Z,5.20
2023-08-11T19:15:08.383Z,4.70
2023-08-11T19:17:37.823Z,6.80
2023-08-11T19:20:06.704Z,6.30
2023-08-11T19:22:34.644Z,5.60
2023-08-11T19:25:02.662Z,6.63
2023-08-11T19:27:31.526Z,6.40
2023-08-11T19:29:59.730Z,6.50
2023-08-11T19:32:27.730Z,8.40
2023-08-11T19:34:57.316Z,13.43
2023-08-11T19:37:25.499Z,7.17
2023-08-11T19:39:53.490Z,8.13
2023-08-11T19:42:21.552Z,8.17
2023-08-11T19:44:49.565Z,7.83
2023-08-11T19:47:17.551Z,8.40
2023-08-11T19:49:45.533Z,8.30
2023-08-11T19:52:15.001Z,7.93
2023-08-11T19:54:43.090Z,7.77
2023-08-11T19:57:11.463Z,7.13
2023-08-11T19:59:39.550Z,8.50
2023-08-11T20:02:07.635Z,7.27
2023-08-11T20:04:35.737Z,7.90
2023-08-11T20:07:04.034Z,8.70
2023-08-11T20:09:36.117Z,8.03
2023-08-11T20:12:05.294Z,7.20
2023-08-11T20:14:33.390Z,8.60
2023-08-11T20:17:02.511Z,8.77
2023-08-11T20:19:30.548Z,8.17
2023-08-11T20:21:58.700Z,9.63
2023-08-11T20:24:26.796Z,8.87
2023-08-11T20:26:57.758Z,8.73
2023-08-11T20:29:26.004Z,8.03
2023-08-11T20:31:57.048Z,8.50
2023-08-11T20:34:27.406Z,8.57
2023-08-11T20:36:56.580Z,8.33
2023-08-11T20:39:24.637Z,8.50
2023-08-11T20:41:55.711Z,8.40
2023-08-11T20:44:25.473Z,8.43
2023-08-11T20:46:54.702Z,9.20
2023-08-11T20:49:22.901Z,12.97
2023-08-11T20:51:51.806Z,10.20
2023-08-11T20:54:19.807Z,10.00
2023-08-11T20:56:47.771Z,11.07
2023-08-11T20:59:15.747Z,10.80
2023-08-11T21:01:45.121Z,11.60
2023-08-11T21:04:13.222Z,11.43
2023-08-11T21:06:41.239Z,12.43
2023-08-11T21:09:09.291Z,11.67
2023-08-11T21:11:37.268Z,10.33
2023-08-11T21:14:08.763Z,11.37
2023-08-11T21:16:36.955Z,10.10
2023-08-11T21:19:06.655Z,9.57
2023-08-11T21:21:36.720Z,8.57
2023-08-11T21:24:04.873Z,8.67
2023-08-11T21:26:32.816Z,8.77
2023-08-11T21:29:00.822Z,7.73
2023-08-11T21:31:28.858Z,9.13
2023-08-11T21:34:06.275Z,11.67
2023-08-11T21:36:35.892Z,8.20
2023-08-11T21:39:06.356Z,6.90
2023-08-11T21:41:34.776Z,7.47
2023-08-11T21:44:03.694Z,7.43
2023-08-11T21:46:31.886Z,7.00
2023-08-11T21:49:00.116Z,6.13
2023-08-11T21:51:28.260Z,6.60
2023-08-11T21:53:57.643Z,5.97
2023-08-11T21:56:25.912Z,5.97
2023-08-11T21:58:53.987Z,6.10
2023-08-11T22:01:22.096Z,5.10
2023-08-11T22:03:50.215Z,4.60
2023-08-11T22:06:18.218Z,4.30
2023-08-11T22:08:46.245Z,4.40
2023-08-11T22:11:30.343Z,4.60
2023-08-11T22:14:03.699Z,4.87
2023-08-11T22:16:31.663Z,4.10
2023-08-11T22:19:00.022Z,4.97
2023-08-11T22:21:27.982Z,4.80
2023-08-11T22:23:56.005Z,4.77
2023-08-11T22:26:25.566Z,4.70
2023-08-11T22:28:53.584Z,4.67
2023-08-11T22:31:21.504Z,5.03
2023-08-11T22:33:49.623Z,5.03
2023-08-11T22:36:17.626Z,5.03
2023-08-11T22:38:45.823Z,5.10
2023-08-11T22:41:13.949Z,5.00
2023-08-11T22:43:43.316Z,5.00
2023-08-11T22:46:11.346Z,4.60
2023-08-11T22:48:39.606Z,4.30
2023-08-11T22:51:07.918Z,4.47
2023-08-11T22:53:35.874Z,4.60
2023-08-11T22:56:03.874Z,4.40
2023-08-11T22:58:32.190Z,4.00
2023-08-11T23:01:02.503Z,4.30
2023-08-11T23:03:30.594Z,4.17
2023-08-11T23:05:58.738Z,3.90
2023-08-11T23:08:26.938Z,4.37
2023-08-11T23:10:55.053Z,4.43
2023-08-11T23:13:23.205Z,4.60
2023-08-11T23:15:51.482Z,4.40
2023-08-11T23:18:21.025Z,4.27
2023-08-11T23:20:49.541Z,4.07
2023-08-11T23:23:17.514Z,4.17
2023-08-11T23:25:45.556Z,3.97
2023-08-11T23:28:13.821Z,4.40
2023-08-11T23:30:41.814Z,3.90
2023-08-11T23:33:09.862Z,4.50
2023-08-11T23:35:39.807Z,4.53
2023-08-11T23:38:07.962Z,4.90
2023-08-11T23:40:36.134Z,4.93
2023-08-11T23:43:04.983Z,4.93
2023-08-11T23:45:33.451Z,4.37
2023-08-11T23:48:01.729Z,4.23
2023-08-11T23:50:29.762Z,4.70
2023-08-11T23:52:59.309Z,4.07
2023-08-11T23:55:28.046Z,4.23
2023-08-11T23:57:56.169Z,4.20
